Bath, New Hampshire
Current Conditions -  °F | °C
As of 11:52 AM on Wednesday 22 Oct 2014 (Local Time) from KHIE Reporting Station
Overcast Overcast  
Wind Chill: 50°   Ceiling: 2500
Heat Index: 50°   Visibility: 10mi
Dew Point: 42°   Wind: 7mph
Humidity: 74%   Direction: 100°E
Pressure: 30.16"   Gusts: NA
Location:  44.17°N, 71.97°W
Report Text: KHIE 221552Z AUTO 10006KT 10SM OVC025 10/06 A3016 RMK AO2 SLP219 T01000056
Loading
Personal Weather Stations






























Interactive Weather Map
Tropical Storm Tracking
New forecast layout! Learn more

10-Day Weather Forecast

Advertisements
Track Severe Weather on mobile